Time;durP1;ratioP1;P1;durP2;ratioP2;P2;SDS_P1;SDS_P2;PMS_P1;PMS_P2;Temp;Humidity;BMP_temperature;BMP_pressure;BME280_temperature;BME280_humidity;BME280_pressure;Samples;Min_cycle;Max_cycle;Signal;HPM_P1;HPM_P2
2023/03/16 00:01:07;;;;;;;10.47;3.10;;;4.50;99.90;;;;;;5094594;28;20123;-77
2023/03/16 00:03:33;;;;;;;13.95;2.67;;;4.50;99.90;;;;;;5093133;28;20118;-77
2023/03/16 00:05:58;;;;;;;6.33;2.70;;;4.50;99.90;;;;;;5094758;28;20052;-76
2023/03/16 00:08:24;;;;;;;6.27;2.40;;;4.50;99.90;;;;;;5094010;28;20427;-76
2023/03/16 00:10:52;;;;;;;6.97;2.37;;;4.50;99.90;;;;;;5094462;28;20388;-76
2023/03/16 00:13:22;;;;;;;4.82;2.38;;;4.50;99.90;;;;;;5094352;28;20051;-76
2023/03/16 00:15:52;;;;;;;7.75;2.60;;;4.50;99.90;;;;;;5094391;28;20044;-76
2023/03/16 00:18:19;;;;;;;9.07;2.55;;;4.50;99.90;;;;;;5094288;28;20044;-76
2023/03/16 00:20:50;;;;;;;7.93;2.53;;;4.50;99.90;;;;;;5094701;28;20101;-77
2023/03/16 00:23:16;;;;;;;6.70;2.40;;;4.60;99.90;;;;;;5094460;28;20044;-76
2023/03/16 00:25:41;;;;;;;6.50;2.20;;;4.60;99.90;;;;;;5092868;28;20560;-76
2023/03/16 00:28:07;;;;;;;9.17;2.93;;;4.60;99.90;;;;;;5092769;28;20052;-76
2023/03/16 00:30:33;;;;;;;14.53;2.67;;;4.60;99.90;;;;;;5094343;28;20083;-76
2023/03/16 00:32:58;;;;;;;7.50;2.70;;;4.60;99.90;;;;;;5092705;28;20439;-76
2023/03/16 00:35:24;;;;;;;7.17;2.43;;;4.70;99.90;;;;;;5093882;28;20043;-76
2023/03/16 00:37:50;;;;;;;5.77;2.50;;;4.60;99.90;;;;;;5093096;28;20052;-76
2023/03/16 00:40:16;;;;;;;7.03;2.73;;;4.70;99.90;;;;;;5093866;28;20040;-76
2023/03/16 00:42:42;;;;;;;7.90;3.33;;;4.60;99.90;;;;;;5092865;28;20055;-77
2023/03/16 00:45:08;;;;;;;6.67;2.33;;;4.70;99.90;;;;;;5094200;28;20097;-76
2023/03/16 00:47:34;;;;;;;9.55;2.58;;;4.70;99.90;;;;;;5094220;28;20353;-76
2023/03/16 00:50:01;;;;;;;9.57;3.15;;;4.70;99.90;;;;;;5093383;28;20476;-76
2023/03/16 00:52:28;;;;;;;9.82;2.50;;;4.70;99.90;;;;;;5094431;28;20051;-76
2023/03/16 00:54:55;;;;;;;5.78;2.80;;;4.70;99.90;;;;;;5092409;28;20097;-76
2023/03/16 00:57:23;;;;;;;8.18;3.00;;;4.70;99.90;;;;;;5094148;28;20044;-76
2023/03/16 00:59:49;;;;;;;9.20;2.75;;;4.70;99.90;;;;;;5093579;28;20051;-76
2023/03/16 01:02:18;;;;;;;5.50;2.67;;;4.70;99.90;;;;;;5092849;28;20051;-76
2023/03/16 01:04:44;;;;;;;6.63;2.90;;;4.70;99.90;;;;;;5093743;28;20130;-76
2023/03/16 01:07:13;;;;;;;6.47;2.70;;;4.70;99.90;;;;;;5093544;28;20131;-76
2023/03/16 01:09:40;;;;;;;10.27;3.03;;;4.70;99.90;;;;;;5093222;28;20052;-76
2023/03/16 01:12:13;;;;;;;6.85;2.90;;;4.70;99.90;;;;;;5093728;28;20047;-77
2023/03/16 01:14:40;;;;;;;6.03;2.70;;;4.60;99.90;;;;;;5093607;28;20466;-77
2023/03/16 01:17:07;;;;;;;7.18;2.70;;;4.60;99.90;;;;;;5093465;28;20389;-76
2023/03/16 01:19:34;;;;;;;9.45;2.83;;;4.60;99.90;;;;;;5093193;28;20051;-76
2023/03/16 01:22:04;;;;;;;7.35;2.28;;;4.60;99.90;;;;;;5093092;28;20495;-77
2023/03/16 01:24:30;;;;;;;8.93;2.80;;;4.60;99.90;;;;;;5093339;28;20040;-77
2023/03/16 01:26:56;;;;;;;8.38;2.80;;;4.60;99.90;;;;;;5092128;28;20047;-77
2023/03/16 01:29:22;;;;;;;7.70;2.93;;;4.50;99.90;;;;;;5093316;28;20056;-77
2023/03/16 01:31:49;;;;;;;6.57;2.60;;;4.60;99.90;;;;;;5092049;28;20104;-77
2023/03/16 01:34:17;;;;;;;7.03;3.00;;;4.50;99.90;;;;;;5094052;28;20513;-77
2023/03/16 01:36:46;;;;;;;9.45;2.65;;;4.60;99.90;;;;;;5093541;28;20101;-77
2023/03/16 01:39:12;;;;;;;10.23;2.85;;;4.60;99.90;;;;;;5093151;28;20124;-77
2023/03/16 01:41:40;;;;;;;6.28;2.92;;;4.60;99.90;;;;;;5093230;28;20048;-77
2023/03/16 01:44:10;;;;;;;7.50;2.70;;;4.50;99.90;;;;;;5093128;28;20131;-77
2023/03/16 01:46:36;;;;;;;6.22;2.70;;;4.50;99.90;;;;;;5093157;28;20552;-77
2023/03/16 01:49:16;;;;;;;8.67;2.60;;;4.50;99.90;;;;;;5092936;28;20040;-77
2023/03/16 01:51:50;;;;;;;8.45;3.30;;;4.50;99.90;;;;;;5093110;28;20055;-77
2023/03/16 01:54:36;;;;;;;5.95;3.03;;;4.60;99.90;;;;;;5093122;28;20044;-77
2023/03/16 01:57:15;;;;;;;5.85;2.55;;;4.50;99.90;;;;;;5091917;28;20044;-77
2023/03/16 02:00:10;;;;;;;5.82;2.58;;;4.50;99.90;;;;;;5092737;28;20549;-77
2023/03/16 02:02:42;;;;;;;4.50;2.17;;;4.50;99.90;;;;;;5093858;28;20430;-77
2023/03/16 02:05:30;;;;;;;8.75;2.50;;;4.60;99.90;;;;;;5093311;28;20059;-77
2023/03/16 02:07:58;;;;;;;7.30;2.90;;;4.60;99.90;;;;;;5093823;28;20127;-77
2023/03/16 02:10:26;;;;;;;6.07;2.38;;;4.70;99.90;;;;;;5092865;28;20044;-77
2023/03/16 02:12:53;;;;;;;7.57;3.20;;;4.60;99.90;;;;;;5092883;28;20381;-77
2023/03/16 02:15:19;;;;;;;5.43;3.03;;;4.60;99.90;;;;;;5092873;28;20040;-77
2023/03/16 02:17:46;;;;;;;7.18;2.83;;;4.70;99.90;;;;;;5094751;28;20104;-77
2023/03/16 02:20:31;;;;;;;8.05;2.65;;;4.70;99.90;;;;;;5096156;28;20522;-76
2023/03/16 02:22:57;;;;;;;6.55;2.85;;;4.70;99.90;;;;;;5097062;28;20063;-77
2023/03/16 02:25:42;;;;;;;6.33;2.70;;;4.70;99.90;;;;;;5096264;28;20361;-76
2023/03/16 02:28:17;;;;;;;9.05;3.00;;;4.70;99.90;;;;;;5096329;28;20040;-77
2023/03/16 02:30:42;;;;;;;6.65;2.92;;;4.70;99.90;;;;;;5096644;28;20439;-77
2023/03/16 02:33:09;;;;;;;5.63;2.93;;;4.70;99.90;;;;;;5095167;28;20044;-77
2023/03/16 02:35:34;;;;;;;6.80;3.28;;;4.70;99.90;;;;;;5095149;28;20064;-77
2023/03/16 02:38:00;;;;;;;7.03;2.93;;;4.70;99.90;;;;;;5096113;28;20054;-76
2023/03/16 02:40:31;;;;;;;8.33;2.87;;;4.80;99.90;;;;;;5096634;28;20056;-76
2023/03/16 02:43:05;;;;;;;8.10;3.58;;;4.80;99.90;;;;;;5094817;28;20497;-76
2023/03/16 02:45:41;;;;;;;5.60;2.72;;;4.80;99.90;;;;;;5096434;28;20040;-76
2023/03/16 02:48:13;;;;;;;10.90;3.80;;;4.80;99.90;;;;;;5096768;28;20051;-76
2023/03/16 02:50:45;;;;;;;7.55;3.10;;;4.80;99.90;;;;;;5095896;28;20047;-76
2023/03/16 02:53:12;;;;;;;6.25;2.75;;;4.80;99.90;;;;;;5096686;28;20184;-76
2023/03/16 02:55:38;;;;;;;9.77;3.60;;;4.80;99.90;;;;;;5096331;28;20044;-77
2023/03/16 02:58:04;;;;;;;7.30;3.50;;;4.80;99.90;;;;;;5094887;28;20070;-76
2023/03/16 03:00:31;;;;;;;7.03;2.80;;;4.80;99.90;;;;;;5095684;28;20075;-76
2023/03/16 03:02:57;;;;;;;7.13;3.25;;;4.80;99.90;;;;;;5094357;28;20094;-76
2023/03/16 03:05:23;;;;;;;8.38;3.03;;;4.80;99.90;;;;;;5094113;28;20040;-76
2023/03/16 03:07:50;;;;;;;7.50;3.45;;;4.80;99.90;;;;;;5095593;28;20046;-76
2023/03/16 03:10:16;;;;;;;7.10;3.30;;;4.80;99.90;;;;;;5095532;28;20541;-76
2023/03/16 03:12:42;;;;;;;6.93;3.53;;;4.80;99.90;;;;;;5095343;28;20040;-76
2023/03/16 03:15:08;;;;;;;8.97;3.20;;;4.90;99.90;;;;;;5096017;28;20456;-76
2023/03/16 03:17:34;;;;;;;8.52;3.10;;;4.80;99.90;;;;;;5095418;28;20067;-76
2023/03/16 03:20:12;;;;;;;7.00;3.10;;;4.80;99.90;;;;;;5095654;28;20047;-77
2023/03/16 03:22:39;;;;;;;6.93;3.72;;;4.80;99.90;;;;;;5095322;28;20048;-76
2023/03/16 03:25:05;;;;;;;7.00;3.60;;;4.80;99.90;;;;;;5095203;28;20063;-76
2023/03/16 03:27:32;;;;;;;7.72;3.67;;;4.80;99.90;;;;;;5094094;28;20047;-76
2023/03/16 03:29:57;;;;;;;5.82;3.30;;;4.90;99.90;;;;;;5077349;28;20093;-76
2023/03/16 03:32:23;;;;;;;7.70;3.60;;;4.90;99.90;;;;;;5095387;28;20056;-76
2023/03/16 03:34:49;;;;;;;9.50;3.60;;;4.90;99.90;;;;;;5076930;28;20040;-76
2023/03/16 03:37:15;;;;;;;7.60;3.70;;;4.90;99.90;;;;;;5094846;28;20043;-76
2023/03/16 03:39:41;;;;;;;8.05;3.60;;;4.90;99.90;;;;;;5094881;28;20044;-76
2023/03/16 03:42:07;;;;;;;8.57;3.50;;;4.90;99.90;;;;;;5094888;28;20178;-77
2023/03/16 03:44:36;;;;;;;8.83;4.10;;;4.90;99.90;;;;;;5095033;28;20290;-76
2023/03/16 03:47:02;;;;;;;6.22;3.40;;;4.90;99.90;;;;;;5077224;28;20545;-76
2023/03/16 03:49:28;;;;;;;11.07;4.18;;;4.90;99.90;;;;;;5093776;28;20446;-76
2023/03/16 03:51:55;;;;;;;9.93;3.95;;;4.90;99.90;;;;;;5095226;28;20078;-77
2023/03/16 03:54:21;;;;;;;7.88;3.58;;;4.90;99.90;;;;;;5094664;28;20079;-76
2023/03/16 03:56:47;;;;;;;8.55;4.18;;;4.90;99.90;;;;;;5094946;28;20087;-76
2023/03/16 03:59:12;;;;;;;6.23;3.77;;;4.90;99.90;;;;;;5094579;28;20078;-76
2023/03/16 04:01:38;;;;;;;9.00;4.00;;;4.90;99.90;;;;;;5095138;28;20403;-76
2023/03/16 04:04:04;;;;;;;9.30;3.77;;;4.90;99.90;;;;;;5094455;28;20059;-76
2023/03/16 04:06:30;;;;;;;7.37;3.90;;;4.90;99.90;;;;;;5094398;28;20055;-76
2023/03/16 04:08:56;;;;;;;7.03;3.88;;;4.90;99.90;;;;;;5094378;28;20055;-76
2023/03/16 04:11:21;;;;;;;9.20;3.80;;;4.90;99.90;;;;;;5093109;28;20043;-76
2023/03/16 04:13:51;;;;;;;10.20;4.07;;;4.90;99.90;;;;;;5094346;28;20074;-77
2023/03/16 04:16:16;;;;;;;8.85;4.40;;;4.90;99.90;;;;;;5094258;28;20055;-76
2023/03/16 04:18:44;;;;;;;9.33;4.80;;;4.90;99.90;;;;;;5076108;28;20052;-76
2023/03/16 04:21:15;;;;;;;6.95;3.95;;;4.90;99.90;;;;;;5093856;28;20480;-76
2023/03/16 04:23:42;;;;;;;10.02;4.53;;;4.90;99.90;;;;;;5094450;28;20476;-76
2023/03/16 04:26:08;;;;;;;7.28;4.18;;;5.00;99.90;;;;;;5093351;28;20043;-76
2023/03/16 04:28:34;;;;;;;14.00;4.45;;;4.90;99.90;;;;;;5094010;28;20048;-76
2023/03/16 04:31:05;;;;;;;8.23;4.30;;;4.90;99.90;;;;;;5094262;28;20042;-76
2023/03/16 04:33:33;;;;;;;9.38;4.75;;;4.90;99.90;;;;;;5094192;28;20048;-76
2023/03/16 04:36:01;;;;;;;8.38;4.60;;;4.90;99.90;;;;;;5076850;28;20083;-76
2023/03/16 04:38:27;;;;;;;9.93;4.10;;;4.90;99.90;;;;;;5093877;28;20052;-76
2023/03/16 04:40:53;;;;;;;10.10;4.97;;;4.90;99.90;;;;;;5093357;28;20051;-76
2023/03/16 04:43:19;;;;;;;10.20;4.67;;;4.90;99.90;;;;;;5093785;28;20372;-76
2023/03/16 04:45:45;;;;;;;11.00;4.60;;;4.90;99.90;;;;;;5093440;28;20438;-76
2023/03/16 04:48:11;;;;;;;10.38;4.72;;;4.90;99.90;;;;;;5093738;28;20051;-76
2023/03/16 04:50:36;;;;;;;9.50;5.13;;;4.90;99.90;;;;;;5093704;28;20062;-76
2023/03/16 04:53:03;;;;;;;10.30;4.43;;;4.90;99.90;;;;;;5092678;28;20131;-76
2023/03/16 04:55:30;;;;;;;7.93;4.97;;;4.90;99.90;;;;;;5093421;28;20044;-76
2023/03/16 04:57:56;;;;;;;10.25;4.78;;;4.90;99.90;;;;;;5092960;28;20052;-75
2023/03/16 05:00:22;;;;;;;11.55;4.65;;;4.90;99.90;;;;;;5092605;28;20048;-75
2023/03/16 05:02:50;;;;;;;8.55;5.43;;;4.90;99.90;;;;;;5093597;28;20055;-75
2023/03/16 05:05:17;;;;;;;9.50;5.70;;;4.90;99.90;;;;;;5091800;28;20051;-75
2023/03/16 05:07:44;;;;;;;10.02;5.35;;;4.90;99.90;;;;;;5092324;28;20058;-75
2023/03/16 05:10:12;;;;;;;8.90;5.20;;;4.90;99.90;;;;;;5093477;28;20044;-76
2023/03/16 05:12:38;;;;;;;8.73;5.22;;;4.90;99.90;;;;;;5093394;28;20048;-76
2023/03/16 05:15:05;;;;;;;11.57;5.40;;;4.90;99.90;;;;;;5093649;28;20040;-76
2023/03/16 05:17:31;;;;;;;8.27;5.18;;;4.90;99.90;;;;;;5093419;28;20051;-76
2023/03/16 05:19:57;;;;;;;11.80;5.78;;;4.90;99.90;;;;;;5093381;28;20055;-76
2023/03/16 05:22:24;;;;;;;10.50;6.17;;;4.90;99.90;;;;;;5093409;28;20052;-76
2023/03/16 05:24:50;;;;;;;11.43;5.65;;;4.90;99.90;;;;;;5093263;28;20048;-76
2023/03/16 05:27:16;;;;;;;8.95;5.82;;;4.90;99.90;;;;;;5093349;28;20048;-76
2023/03/16 05:29:45;;;;;;;9.63;5.32;;;4.90;99.90;;;;;;5093294;28;20040;-76
2023/03/16 05:32:16;;;;;;;9.90;5.85;;;4.90;99.90;;;;;;5093358;28;20048;-75
2023/03/16 05:34:42;;;;;;;9.93;6.30;;;4.90;99.90;;;;;;5093838;28;20040;-75
2023/03/16 05:37:08;;;;;;;10.30;5.97;;;4.80;99.90;;;;;;5093203;28;20087;-76
2023/03/16 05:39:34;;;;;;;10.02;6.07;;;4.80;99.90;;;;;;5093730;28;20048;-76
2023/03/16 05:41:59;;;;;;;9.97;6.00;;;4.80;99.90;;;;;;5093720;28;20055;-76
2023/03/16 05:44:25;;;;;;;9.67;6.00;;;4.80;99.90;;;;;;5093134;28;20101;-76
2023/03/16 05:46:51;;;;;;;10.57;5.90;;;4.80;99.90;;;;;;5075063;28;20488;-75
2023/03/16 05:49:17;;;;;;;10.17;6.30;;;4.70;99.90;;;;;;5093411;28;20048;-75
2023/03/16 05:51:43;;;;;;;10.67;6.23;;;4.70;99.90;;;;;;5093396;28;20507;-76
2023/03/16 05:54:09;;;;;;;12.37;6.30;;;4.70;99.90;;;;;;5096980;28;20274;-75
2023/03/16 05:56:34;;;;;;;9.83;6.77;;;4.70;99.90;;;;;;5096584;28;20150;-76
2023/03/16 05:59:01;;;;;;;11.80;6.47;;;4.70;99.90;;;;;;5096842;28;20290;-76
2023/03/16 06:01:27;;;;;;;13.32;6.53;;;4.70;99.90;;;;;;5096864;28;20438;-76
2023/03/16 06:03:53;;;;;;;12.20;6.37;;;4.70;99.90;;;;;;5096911;28;20067;-75
2023/03/16 06:06:21;;;;;;;10.03;5.83;;;4.70;99.90;;;;;;5096623;28;20175;-75
2023/03/16 06:08:47;;;;;;;11.80;6.03;;;4.70;99.90;;;;;;5096395;28;20525;-76
2023/03/16 06:11:12;;;;;;;13.90;7.13;;;4.70;99.90;;;;;;5096649;28;20052;-76
2023/03/16 06:13:38;;;;;;;9.27;6.10;;;4.70;99.90;;;;;;5097352;28;20044;-76
2023/03/16 06:16:05;;;;;;;10.93;6.77;;;4.70;99.90;;;;;;5096512;28;20040;-75
2023/03/16 06:18:32;;;;;;;13.50;6.45;;;4.70;99.90;;;;;;5096220;28;20556;-75
2023/03/16 06:20:57;;;;;;;13.25;6.90;;;4.70;99.90;;;;;;5097174;28;20040;-76
2023/03/16 06:23:23;;;;;;;12.97;6.67;;;4.70;99.90;;;;;;5096421;28;20044;-75
2023/03/16 06:25:49;;;;;;;13.00;6.43;;;4.70;99.90;;;;;;5097053;28;20047;-75
2023/03/16 06:28:15;;;;;;;11.30;6.13;;;4.70;99.90;;;;;;5096883;28;20388;-75
2023/03/16 06:30:41;;;;;;;8.88;6.25;;;4.70;99.90;;;;;;5096771;28;20048;-75
2023/03/16 06:33:07;;;;;;;9.70;6.00;;;4.80;99.90;;;;;;5095297;28;20118;-76
2023/03/16 06:35:33;;;;;;;10.50;5.63;;;4.80;99.90;;;;;;5096183;28;20043;-75
2023/03/16 06:37:59;;;;;;;12.80;5.47;;;4.80;99.90;;;;;;5096167;28;20043;-75
2023/03/16 06:40:25;;;;;;;12.30;6.80;;;4.80;99.90;;;;;;5096095;28;20051;-75
2023/03/16 06:42:51;;;;;;;10.53;5.87;;;4.80;99.90;;;;;;5096494;28;20036;-76
2023/03/16 06:45:20;;;;;;;9.20;5.57;;;4.90;99.90;;;;;;5096009;28;20058;-75
2023/03/16 06:47:46;;;;;;;13.82;6.00;;;4.90;99.90;;;;;;5094987;28;20044;-75
2023/03/16 06:50:11;;;;;;;12.53;6.50;;;4.90;99.90;;;;;;5095981;28;20055;-75
2023/03/16 06:52:37;;;;;;;11.43;5.90;;;4.90;99.90;;;;;;5095818;28;20048;-75
2023/03/16 06:55:04;;;;;;;9.90;5.50;;;4.90;99.90;;;;;;5096287;28;20098;-75
2023/03/16 06:57:30;;;;;;;11.23;6.63;;;4.90;99.90;;;;;;5095479;28;20492;-76
2023/03/16 06:59:56;;;;;;;9.80;5.67;;;4.90;99.90;;;;;;5094777;28;20051;-76
2023/03/16 07:02:22;;;;;;;10.68;5.93;;;4.90;99.90;;;;;;5096183;28;20052;-76
2023/03/16 07:04:49;;;;;;;8.30;4.80;;;5.00;99.90;;;;;;5095309;28;20126;-75
2023/03/16 07:07:15;;;;;;;10.43;4.85;;;5.00;99.90;;;;;;5096385;28;20054;-76
2023/03/16 07:09:42;;;;;;;9.02;5.20;;;5.00;99.90;;;;;;5095535;28;20044;-75
2023/03/16 07:12:08;;;;;;;16.27;5.75;;;5.10;99.90;;;;;;5095447;28;20052;-75
2023/03/16 07:14:34;;;;;;;9.30;5.00;;;5.10;99.90;;;;;;5095511;28;20122;-76
2023/03/16 07:17:00;;;;;;;10.63;5.50;;;5.10;99.90;;;;;;5095578;28;20178;-76
2023/03/16 07:19:27;;;;;;;10.07;5.55;;;5.10;99.90;;;;;;5095524;28;20125;-76
2023/03/16 07:21:53;;;;;;;11.77;6.43;;;5.20;99.90;;;;;;5095321;28;20570;-76
2023/03/16 07:24:19;;;;;;;9.97;5.63;;;5.20;99.90;;;;;;5096052;28;20067;-76
2023/03/16 07:26:45;;;;;;;13.32;5.78;;;5.20;99.90;;;;;;5095196;28;20126;-75
2023/03/16 07:29:12;;;;;;;11.35;5.60;;;5.20;99.90;;;;;;5095925;28;20122;-75
2023/03/16 07:31:38;;;;;;;9.75;5.60;;;5.20;99.90;;;;;;5095233;28;20047;-75
2023/03/16 07:34:04;;;;;;;9.60;5.60;;;5.20;99.90;;;;;;5094676;28;20043;-76
2023/03/16 07:36:30;;;;;;;9.70;5.90;;;5.20;99.90;;;;;;5095008;28;20281;-76
2023/03/16 07:38:56;;;;;;;9.47;5.60;;;5.20;99.90;;;;;;5094956;28;20040;-76
2023/03/16 07:41:22;;;;;;;11.47;5.90;;;5.30;99.90;;;;;;5094901;28;20044;-76
2023/03/16 07:43:47;;;;;;;8.37;5.37;;;5.30;99.90;;;;;;5094879;28;20097;-76
2023/03/16 07:46:14;;;;;;;9.00;5.53;;;5.30;99.90;;;;;;5094798;28;20036;-76
2023/03/16 07:48:41;;;;;;;11.23;6.47;;;5.30;99.90;;;;;;5093849;28;20117;-76
2023/03/16 07:51:08;;;;;;;8.82;5.40;;;5.30;99.90;;;;;;5093447;28;20416;-76
2023/03/16 07:53:34;;;;;;;11.43;5.70;;;5.30;99.90;;;;;;5094648;28;20099;-76
2023/03/16 07:56:00;;;;;;;10.20;6.30;;;5.30;99.90;;;;;;5094886;28;20075;-77
2023/03/16 07:58:26;;;;;;;9.07;5.35;;;5.30;99.90;;;;;;5094630;28;20055;-76
2023/03/16 08:00:58;;;;;;;10.18;6.28;;;5.30;99.90;;;;;;5095288;28;20376;-76
2023/03/16 08:03:28;;;;;;;8.50;5.93;;;5.30;99.90;;;;;;5094238;28;20052;-75
2023/03/16 08:05:54;;;;;;;11.32;6.28;;;5.30;99.90;;;;;;5095250;28;20052;-76
2023/03/16 08:08:21;;;;;;;12.60;5.93;;;5.30;99.90;;;;;;5094388;28;20140;-76
2023/03/16 08:10:48;;;;;;;9.55;6.45;;;5.30;99.90;;;;;;5094353;28;20060;-76
2023/03/16 08:13:14;;;;;;;10.93;6.05;;;5.30;99.90;;;;;;5094275;28;20076;-76
2023/03/16 08:15:41;;;;;;;11.38;6.32;;;5.30;99.90;;;;;;5093572;28;20123;-75
2023/03/16 08:18:07;;;;;;;9.15;5.72;;;5.30;99.90;;;;;;5094253;28;20113;-76
2023/03/16 08:20:33;;;;;;;11.57;5.93;;;5.30;99.90;;;;;;5094017;28;20044;-76
2023/03/16 08:22:58;;;;;;;9.38;5.93;;;5.30;99.90;;;;;;5094413;28;20390;-77
2023/03/16 08:25:25;;;;;;;9.97;6.40;;;5.30;99.90;;;;;;5094125;28;20040;-77
2023/03/16 08:27:51;;;;;;;9.98;5.90;;;5.30;99.90;;;;;;5093122;28;20044;-77
2023/03/16 08:30:18;;;;;;;11.35;5.80;;;5.30;99.90;;;;;;5094165;28;20442;-77
2023/03/16 08:32:44;;;;;;;11.00;5.88;;;5.30;99.90;;;;;;5094408;28;20083;-77
2023/03/16 08:35:13;;;;;;;9.80;6.53;;;5.30;99.90;;;;;;5093850;28;20408;-76
2023/03/16 08:37:40;;;;;;;11.70;5.78;;;5.30;99.90;;;;;;5094556;28;20423;-78
2023/03/16 08:40:12;;;;;;;9.82;5.75;;;5.30;99.90;;;;;;5093903;28;20047;-75
2023/03/16 08:42:38;;;;;;;10.27;5.95;;;5.30;99.90;;;;;;5094591;28;20055;-75
2023/03/16 08:45:08;;;;;;;11.77;6.25;;;5.30;99.90;;;;;;5094339;28;20123;-75
2023/03/16 08:47:39;;;;;;;12.15;5.95;;;5.30;99.90;;;;;;5093776;28;20044;-74
2023/03/16 08:50:06;;;;;;;10.43;5.95;;;5.30;99.90;;;;;;5094410;28;20048;-74
2023/03/16 08:52:35;;;;;;;13.23;5.95;;;5.30;99.90;;;;;;5093687;28;20054;-74
2023/03/16 08:55:04;;;;;;;13.68;6.85;;;5.30;99.90;;;;;;5093734;28;20040;-74
2023/03/16 08:57:31;;;;;;;10.02;5.70;;;5.30;99.90;;;;;;5093696;28;20090;-74
2023/03/16 08:59:57;;;;;;;10.80;6.00;;;5.30;99.90;;;;;;5093984;28;20106;-76
2023/03/16 09:02:24;;;;;;;9.55;6.43;;;5.30;99.90;;;;;;5093672;28;20113;-73
2023/03/16 09:04:50;;;;;;;14.25;6.40;;;5.40;99.90;;;;;;5093114;28;20056;-74
2023/03/16 09:07:17;;;;;;;11.87;6.17;;;5.40;99.90;;;;;;5092640;28;20036;-72
2023/03/16 09:09:44;;;;;;;11.25;6.00;;;5.40;99.90;;;;;;5093586;28;20052;-74
2023/03/16 09:12:11;;;;;;;12.23;6.53;;;5.40;99.90;;;;;;5094069;28;20432;-73
2023/03/16 09:14:38;;;;;;;9.88;5.50;;;5.40;99.90;;;;;;5093613;28;20127;-74
2023/03/16 09:17:06;;;;;;;10.07;5.88;;;5.50;99.90;;;;;;5092329;28;20048;-73
2023/03/16 09:19:32;;;;;;;12.80;6.07;;;5.50;99.90;;;;;;5093546;28;20044;-72
2023/03/16 09:21:59;;;;;;;8.75;5.47;;;5.60;99.90;;;;;;5093778;28;20120;-72
2023/03/16 09:24:25;;;;;;;12.13;6.10;;;5.60;99.90;;;;;;5093433;28;20087;-71
2023/03/16 09:26:51;;;;;;;12.23;5.50;;;5.60;99.90;;;;;;5095713;28;20079;-72
2023/03/16 09:29:17;;;;;;;11.85;6.57;;;5.60;99.90;;;;;;5097562;28;20052;-72
2023/03/16 09:31:44;;;;;;;10.93;5.90;;;5.70;99.90;;;;;;5097522;28;20135;-72
2023/03/16 09:34:10;;;;;;;11.63;6.13;;;5.70;99.90;;;;;;5097489;28;20458;-72
2023/03/16 09:36:36;;;;;;;10.63;5.63;;;5.70;99.90;;;;;;5098017;28;20048;-72
2023/03/16 09:39:02;;;;;;;10.97;5.57;;;5.80;99.90;;;;;;5097342;28;20044;-75
2023/03/16 09:41:33;;;;;;;8.32;5.88;;;5.70;99.90;;;;;;5097387;28;20395;-72
2023/03/16 09:44:09;;;;;;;9.90;5.72;;;5.80;99.90;;;;;;5097347;28;20087;-71
2023/03/16 09:46:42;;;;;;;10.18;5.53;;;5.80;99.90;;;;;;5097242;28;20047;-74
2023/03/16 09:49:16;;;;;;;10.82;6.32;;;5.80;99.90;;;;;;5095951;28;20044;-71
2023/03/16 09:51:42;;;;;;;11.25;6.00;;;5.70;99.90;;;;;;5097231;28;20049;-71
2023/03/16 09:54:31;;;;;;;10.17;5.83;;;5.70;99.90;;;;;;5097675;28;20097;-72
2023/03/16 09:56:59;;;;;;;8.65;5.50;;;5.80;99.90;;;;;;5096427;28;20048;-73
2023/03/16 09:59:26;;;;;;;11.15;5.40;;;5.80;99.90;;;;;;5097036;28;20126;-74
2023/03/16 10:02:10;;;;;;;11.55;5.45;;;5.80;99.90;;;;;;5096320;28;20051;-74
2023/03/16 10:04:51;;;;;;;8.00;4.55;;;5.80;99.90;;;;;;5096888;28;20365;-73
2023/03/16 10:07:28;;;;;;;8.63;5.13;;;5.80;99.90;;;;;;5096935;28;20051;-73
2023/03/16 10:10:14;;;;;;;11.88;5.68;;;5.80;99.90;;;;;;5097789;28;20067;-80
2023/03/16 10:12:46;;;;;;;8.68;5.07;;;5.90;99.90;;;;;;5096847;28;20048;-72
2023/03/16 10:15:21;;;;;;;10.55;4.93;;;5.90;99.90;;;;;;5096804;28;20040;-73
2023/03/16 10:17:51;;;;;;;9.30;4.80;;;5.90;99.90;;;;;;5096843;28;20563;-76
2023/03/16 10:20:21;;;;;;;9.35;5.35;;;5.80;99.90;;;;;;5096798;28;20365;-75
2023/03/16 10:22:51;;;;;;;16.70;5.28;;;5.80;99.90;;;;;;5097296;28;20048;-75
2023/03/16 10:25:41;;;;;;;12.75;5.05;;;5.80;99.90;;;;;;5097189;28;20052;-75
2023/03/16 10:28:14;;;;;;;10.55;5.47;;;5.90;99.90;;;;;;5096738;28;20063;-77
2023/03/16 10:30:41;;;;;;;8.35;5.03;;;5.90;99.90;;;;;;5097163;28;20043;-74
2023/03/16 10:33:26;;;;;;;11.07;5.20;;;5.90;99.90;;;;;;5096479;28;20048;-73
2023/03/16 10:36:29;;;;;;;10.75;5.38;;;5.90;99.90;;;;;;5095263;28;20475;-74
2023/03/16 10:39:10;;;;;;;9.82;5.38;;;6.00;99.90;;;;;;5095715;28;20044;-73
2023/03/16 10:41:39;;;;;;;10.40;5.30;;;6.00;99.90;;;;;;5096564;28;20453;-74
2023/03/16 10:44:20;;;;;;;8.55;4.90;;;6.10;99.90;;;;;;5095973;28;20488;-75
2023/03/16 10:46:47;;;;;;;7.85;4.47;;;6.20;99.90;;;;;;5096234;28;20080;-78
2023/03/16 10:49:25;;;;;;;10.10;4.55;;;6.30;99.90;;;;;;5095001;28;20048;-81
2023/03/16 10:52:03;;;;;;;7.32;4.68;;;6.40;99.90;;;;;;5096129;28;20048;-76
2023/03/16 10:54:39;;;;;;;12.63;5.95;;;6.50;99.90;;;;;;5096351;28;20102;-75
2023/03/16 10:57:30;;;;;;;13.07;5.20;;;6.60;99.90;;;;;;5096088;28;20044;-77
2023/03/16 11:00:20;;;;;;;9.07;4.88;;;6.70;99.90;;;;;;5096619;28;20048;-74
2023/03/16 11:02:52;;;;;;;9.63;4.65;;;6.80;99.90;;;;;;5081999;28;20091;-75
2023/03/16 11:05:18;;;;;;;8.48;4.72;;;6.80;99.90;;;;;;5093978;28;20135;-74
2023/03/16 11:07:53;;;;;;;13.30;5.43;;;6.90;99.90;;;;;;5095639;28;20131;-74
2023/03/16 11:10:34;;;;;;;6.95;4.32;;;6.90;99.90;;;;;;5096538;28;20372;-73
2023/03/16 11:13:16;;;;;;;8.07;4.07;;;7.00;99.90;;;;;;5095636;28;20052;-75
2023/03/16 11:15:42;;;;;;;10.10;4.00;;;7.00;99.90;;;;;;5095661;28;20052;-75
2023/03/16 11:18:28;;;;;;;7.27;4.20;;;7.10;99.90;;;;;;5095804;28;20074;-75
2023/03/16 11:20:54;;;;;;;9.02;4.30;;;7.10;99.90;;;;;;5095620;28;20125;-76
2023/03/16 11:23:31;;;;;;;8.48;4.65;;;7.10;99.90;;;;;;5096224;28;20144;-77
2023/03/16 11:26:02;;;;;;;11.18;4.70;;;7.20;99.90;;;;;;5095410;28;20101;-75
2023/03/16 11:28:43;;;;;;;8.27;4.40;;;7.20;99.90;;;;;;5094449;28;20044;-75
2023/03/16 11:31:48;;;;;;;9.52;4.50;;;7.30;99.90;;;;;;5095385;28;20093;-75
2023/03/16 11:34:27;;;;;;;10.40;4.53;;;7.40;99.90;;;;;;5095846;28;20044;-76
2023/03/16 11:36:55;;;;;;;9.55;4.35;;;7.50;99.90;;;;;;5095282;28;20086;-76
2023/03/16 11:39:39;;;;;;;8.15;4.68;;;7.50;99.90;;;;;;5095129;28;20050;-77
2023/03/16 11:42:27;;;;;;;7.75;4.38;;;7.60;99.90;;;;;;5095197;28;20051;-74
2023/03/16 11:45:02;;;;;;;8.07;4.25;;;7.70;99.90;;;;;;5095124;28;20069;-73
2023/03/16 11:47:57;;;;;;;9.50;4.47;;;7.80;99.90;;;;;;5095219;28;20511;-73
2023/03/16 11:50:44;;;;;;;9.57;4.50;;;7.90;99.90;;;;;;5077728;28;20087;-73
2023/03/16 11:53:23;;;;;;;11.57;4.93;;;8.00;99.90;;;;;;5094877;28;20044;-73
2023/03/16 11:55:57;;;;;;;8.95;4.07;;;8.10;99.90;;;;;;5095741;28;20044;-74
2023/03/16 11:58:27;;;;;;;11.57;4.72;;;8.20;99.90;;;;;;5095655;28;20052;-74
2023/03/16 12:01:06;;;;;;;8.65;4.63;;;8.30;99.90;;;;;;5094685;28;20048;-73
2023/03/16 12:03:52;;;;;;;6.97;3.67;;;8.40;99.90;;;;;;5094663;28;20048;-74
2023/03/16 12:06:42;;;;;;;8.52;4.18;;;8.40;99.90;;;;;;5094834;28;20066;-74
2023/03/16 12:09:37;;;;;;;6.50;3.47;;;8.40;99.90;;;;;;5094875;28;20052;-76
2023/03/16 12:12:33;;;;;;;8.40;4.30;;;8.50;99.90;;;;;;5094606;28;20040;-77
2023/03/16 12:15:16;;;;;;;9.07;4.18;;;8.50;99.90;;;;;;5094549;28;20048;-74
2023/03/16 12:17:44;;;;;;;9.40;3.63;;;8.60;99.90;;;;;;5094716;28;20079;-81
2023/03/16 12:20:22;;;;;;;7.45;4.03;;;8.60;99.90;;;;;;5094371;28;20044;-73
2023/03/16 12:23:21;;;;;;;7.47;3.78;;;8.70;99.90;;;;;;5094908;28;20059;-77
2023/03/16 12:25:48;;;;;;;8.83;4.10;;;8.70;99.90;;;;;;5065500;28;20125;-78
2023/03/16 12:28:24;;;;;;;10.03;3.80;;;8.80;99.90;;;;;;5094247;28;20278;-79
2023/03/16 12:31:08;;;;;;;7.93;3.40;;;8.80;99.90;;;;;;5094057;28;20602;-79
2023/03/16 12:33:47;;;;;;;10.02;4.10;;;8.80;99.90;;;;;;5094184;28;20290;-78
2023/03/16 12:36:15;;;;;;;9.13;4.43;;;8.80;99.90;;;;;;5094173;28;20048;-76
2023/03/16 12:38:54;;;;;;;9.00;3.70;;;8.80;99.90;;;;;;5093969;28;20286;-77
2023/03/16 12:42:08;;;;;;;8.20;3.83;;;8.80;99.90;;;;;;5093996;28;20361;-79
2023/03/16 12:44:52;;;;;;;7.83;3.57;;;8.80;99.90;;;;;;4995546;28;20293;-78
2023/03/16 12:47:27;;;;;;;7.57;3.50;;;8.80;99.90;;;;;;5086757;28;20872;-75
2023/03/16 12:49:53;;;;;;;8.35;3.80;;;8.80;99.90;;;;;;5093651;28;20323;-74
2023/03/16 12:52:19;;;;;;;8.10;3.57;;;8.80;99.90;;;;;;5093838;28;20538;-76
2023/03/16 12:54:53;;;;;;;6.27;3.33;;;8.80;99.90;;;;;;5093062;28;20680;-78
2023/03/16 12:57:23;;;;;;;6.20;3.53;;;8.80;99.90;;;;;;5093816;28;20841;-78
2023/03/16 12:59:57;;;;;;;8.23;4.03;;;8.80;99.90;;;;;;5093654;28;20278;-73
2023/03/16 13:02:30;;;;;;;8.30;4.10;;;8.80;99.90;;;;;;5093428;28;20309;-79
2023/03/16 13:05:16;;;;;;;8.20;3.50;;;8.80;99.90;;;;;;5093714;28;20301;-79
2023/03/16 13:07:47;;;;;;;7.45;3.40;;;8.80;99.90;;;;;;5094550;28;20630;-76